Time;durP1;ratioP1;P1;durP2;ratioP2;P2;SDS_P1;SDS_P2;PMS_P1;PMS_P2;Temp;Humidity;BMP_temperature;BMP_pressure;BME280_temperature;BME280_humidity;BME280_pressure;Samples;Min_cycle;Max_cycle;Signal;HPM_P1;HPM_P2
2021/06/27 00:01:04;;;;;;;68.07;40.72;;;19.10;99.90;;;;;;5077791;28;20165;-84
2021/06/27 00:03:30;;;;;;;65.03;40.10;;;19.20;99.90;;;;;;5094746;28;20236;-84
2021/06/27 00:05:56;;;;;;;63.35;39.70;;;19.10;99.90;;;;;;5096423;28;20576;-85
2021/06/27 00:08:21;;;;;;;63.08;41.33;;;19.10;99.90;;;;;;5078269;28;20572;-84
2021/06/27 00:10:47;;;;;;;59.97;42.22;;;19.00;99.90;;;;;;5078425;28;20166;-85
2021/06/27 00:13:13;;;;;;;63.42;42.45;;;19.10;99.90;;;;;;5096467;28;20189;-84
2021/06/27 00:15:44;;;;;;;62.25;41.15;;;19.10;99.90;;;;;;5096276;28;20170;-86
2021/06/27 00:18:15;;;;;;;62.45;41.92;;;19.10;99.90;;;;;;5096412;28;20257;-85
2021/06/27 00:20:43;;;;;;;68.05;43.28;;;19.10;99.90;;;;;;5078636;28;20618;-85
2021/06/27 00:23:10;;;;;;;65.95;42.67;;;19.10;99.90;;;;;;5078401;28;20177;-84
2021/06/27 00:25:36;;;;;;;59.78;41.13;;;19.10;99.90;;;;;;5077997;28;20188;-84
2021/06/27 00:28:04;;;;;;;68.10;43.80;;;19.10;99.90;;;;;;5078100;28;20171;-86
2021/06/27 00:30:31;;;;;;;61.90;41.22;;;19.20;99.90;;;;;;5092179;28;20171;-85
2021/06/27 00:32:57;;;;;;;66.13;41.47;;;19.20;99.90;;;;;;5080139;28;20531;-83
2021/06/27 00:35:26;;;;;;;65.30;40.65;;;19.20;99.90;;;;;;5077713;28;20261;-84
2021/06/27 00:37:53;;;;;;;65.05;40.97;;;19.30;99.90;;;;;;5077786;28;20185;-84
2021/06/27 00:40:22;;;;;;;53.10;37.22;;;19.30;99.90;;;;;;5095888;28;20619;-85
2021/06/27 00:42:49;;;;;;;59.22;37.85;;;19.30;99.90;;;;;;5077902;28;20241;-84
2021/06/27 00:45:17;;;;;;;53.00;36.90;;;19.30;99.90;;;;;;5095761;28;20202;-85
2021/06/27 00:47:45;;;;;;;64.25;42.28;;;19.30;99.90;;;;;;5077457;28;20681;-84
2021/06/27 00:50:21;;;;;;;59.85;40.85;;;19.30;99.90;;;;;;5078008;28;20253;-84
2021/06/27 00:52:47;;;;;;;57.55;39.25;;;19.30;99.90;;;;;;5095919;28;20161;-84
2021/06/27 00:55:13;;;;;;;67.72;41.35;;;19.30;99.90;;;;;;5095877;28;20162;-84
2021/06/27 00:57:42;;;;;;;68.45;44.40;;;19.30;99.90;;;;;;5072198;28;20167;-85
2021/06/27 01:00:11;;;;;;;69.70;45.33;;;19.40;99.90;;;;;;5057267;28;20626;-84
2021/06/27 01:02:37;;;;;;;80.30;49.45;;;19.40;99.90;;;;;;5057151;28;20167;-85
2021/06/27 01:05:12;;;;;;;74.32;48.53;;;19.40;99.90;;;;;;5075315;28;20284;-85
2021/06/27 01:07:38;;;;;;;75.20;48.30;;;19.30;99.90;;;;;;5065876;28;20166;-84
2021/06/27 01:10:05;;;;;;;79.10;50.75;;;19.30;99.90;;;;;;5095450;28;20501;-84
2021/06/27 01:12:30;;;;;;;74.85;47.63;;;19.20;99.90;;;;;;5095202;28;20194;-83
2021/06/27 01:14:56;;;;;;;73.18;47.58;;;19.20;99.90;;;;;;5077322;28;20209;-84
2021/06/27 01:17:22;;;;;;;72.47;47.67;;;19.20;99.90;;;;;;5060428;28;20201;-85
2021/06/27 01:19:48;;;;;;;69.63;48.35;;;19.20;99.90;;;;;;5076984;28;20235;-84
2021/06/27 01:22:14;;;;;;;77.88;49.20;;;19.30;99.90;;;;;;5077083;28;20170;-84
2021/06/27 01:24:40;;;;;;;75.80;47.35;;;19.30;99.90;;;;;;5076973;28;20194;-85
2021/06/27 01:27:06;;;;;;;74.78;46.45;;;19.40;99.90;;;;;;5068059;28;20263;-85
2021/06/27 01:29:32;;;;;;;66.13;43.30;;;19.30;99.90;;;;;;5086689;28;20253;-85
2021/06/27 01:31:58;;;;;;;80.32;51.35;;;19.30;99.90;;;;;;5090860;28;20591;-84
2021/06/27 01:34:24;;;;;;;84.68;52.05;;;19.30;99.90;;;;;;5074747;28;20174;-84
2021/06/27 01:36:50;;;;;;;74.28;49.78;;;19.00;99.90;;;;;;5056800;28;20170;-83
2021/06/27 01:39:16;;;;;;;76.43;49.90;;;18.90;99.90;;;;;;5062232;28;20664;-84
2021/06/27 01:41:49;;;;;;;75.10;49.88;;;18.90;99.90;;;;;;5076495;28;20217;-84
2021/06/27 01:44:15;;;;;;;72.68;46.50;;;19.00;99.90;;;;;;5094701;28;20197;-84
2021/06/27 01:46:41;;;;;;;70.20;45.83;;;19.10;99.90;;;;;;5076768;28;20269;-85
2021/06/27 01:49:08;;;;;;;78.13;48.25;;;19.10;99.90;;;;;;5076689;28;20292;-84
2021/06/27 01:51:34;;;;;;;84.68;50.88;;;19.10;99.90;;;;;;5076092;28;20751;-83
2021/06/27 01:54:00;;;;;;;79.30;49.58;;;19.20;99.90;;;;;;5094961;28;20209;-84
2021/06/27 01:56:25;;;;;;;89.35;52.15;;;19.20;99.90;;;;;;5073695;28;20166;-84
2021/06/27 01:58:51;;;;;;;90.13;53.80;;;19.20;99.90;;;;;;5070048;28;20502;-84
2021/06/27 02:01:30;;;;;;;85.20;52.80;;;19.20;99.90;;;;;;5076154;28;20162;-85
2021/06/27 02:03:55;;;;;;;78.20;50.22;;;19.20;99.90;;;;;;5094420;28;20201;-84
2021/06/27 02:06:23;;;;;;;86.72;52.45;;;19.10;99.90;;;;;;5094337;28;20174;-85
2021/06/27 02:08:50;;;;;;;81.90;53.70;;;19.10;99.90;;;;;;5093373;28;20177;-83
2021/06/27 02:11:18;;;;;;;88.15;53.95;;;19.10;99.90;;;;;;5059316;28;20174;-85
2021/06/27 02:13:44;;;;;;;79.35;54.30;;;18.80;99.90;;;;;;5094282;28;20197;-85
2021/06/27 02:16:10;;;;;;;83.07;53.55;;;18.60;99.90;;;;;;5075857;28;20174;-85
2021/06/27 02:18:42;;;;;;;74.95;51.40;;;18.50;99.90;;;;;;5076127;28;20166;-84
2021/06/27 02:21:15;;;;;;;77.70;50.42;;;18.40;99.90;;;;;;5075931;28;20530;-84
2021/06/27 02:23:42;;;;;;;76.50;49.67;;;18.40;99.90;;;;;;5075582;28;20251;-84
2021/06/27 02:26:08;;;;;;;70.93;50.33;;;18.40;99.90;;;;;;5075680;28;20213;-85
2021/06/27 02:28:34;;;;;;;78.40;51.35;;;18.40;99.90;;;;;;5055461;28;20179;-85
2021/06/27 02:31:02;;;;;;;74.25;50.92;;;18.50;99.90;;;;;;5073676;28;20249;-85
2021/06/27 02:33:28;;;;;;;74.20;50.40;;;18.60;99.90;;;;;;5086165;28;20170;-85
2021/06/27 02:35:55;;;;;;;77.80;50.65;;;18.70;99.90;;;;;;5093618;28;20248;-85
2021/06/27 02:38:21;;;;;;;77.43;51.47;;;18.60;99.90;;;;;;5094232;28;20607;-85
2021/06/27 02:40:47;;;;;;;66.70;45.83;;;18.70;99.90;;;;;;5075956;28;20168;-85
2021/06/27 02:43:17;;;;;;;71.28;47.38;;;18.80;99.90;;;;;;5093581;28;20256;-85
2021/06/27 02:45:43;;;;;;;78.20;49.85;;;19.00;99.90;;;;;;5093930;28;20190;-85
2021/06/27 02:48:08;;;;;;;88.50;56.45;;;19.10;99.90;;;;;;5058829;28;20181;-85
2021/06/27 02:50:38;;;;;;;82.68;54.30;;;19.20;99.90;;;;;;5093450;28;20166;-85
2021/06/27 02:53:05;;;;;;;77.70;53.63;;;19.20;99.90;;;;;;5093815;28;20257;-85
2021/06/27 02:55:31;;;;;;;84.03;54.25;;;19.00;99.90;;;;;;5093523;28;20180;-86
2021/06/27 02:57:57;;;;;;;84.13;53.63;;;19.00;99.90;;;;;;5065871;28;20268;-85
2021/06/27 03:00:23;;;;;;;76.32;51.95;;;19.00;99.90;;;;;;5075561;28;20251;-85
2021/06/27 03:02:49;;;;;;;75.63;51.15;;;19.00;99.90;;;;;;5093604;28;20595;-84
2021/06/27 03:05:16;;;;;;;73.93;49.30;;;18.80;99.90;;;;;;5074791;28;20543;-85
2021/06/27 03:07:42;;;;;;;83.47;51.78;;;18.80;99.90;;;;;;5093653;28;20170;-84
2021/06/27 03:10:11;;;;;;;79.05;52.50;;;18.80;99.90;;;;;;5075605;28;20166;-86
2021/06/27 03:12:42;;;;;;;72.65;48.58;;;18.90;99.90;;;;;;5093590;28;20191;-85
2021/06/27 03:15:09;;;;;;;80.50;49.75;;;18.90;99.90;;;;;;5075378;28;20174;-86
2021/06/27 03:17:34;;;;;;;75.63;47.75;;;18.80;99.90;;;;;;5093384;28;20198;-85
2021/06/27 03:20:00;;;;;;;66.97;46.58;;;18.70;99.90;;;;;;5094455;28;20644;-85
2021/06/27 03:22:26;;;;;;;66.07;46.45;;;18.70;99.90;;;;;;5079492;28;20170;-85
2021/06/27 03:24:51;;;;;;;66.03;45.28;;;18.60;99.90;;;;;;5097497;28;20206;-85
2021/06/27 03:27:19;;;;;;;65.93;46.22;;;18.50;99.90;;;;;;5096447;28;20184;-85
2021/06/27 03:29:45;;;;;;;66.88;45.38;;;18.60;99.90;;;;;;5079454;28;20158;-85
2021/06/27 03:32:11;;;;;;;61.30;42.58;;;18.70;99.90;;;;;;5079220;28;20170;-85
2021/06/27 03:34:37;;;;;;;69.43;48.40;;;18.80;99.90;;;;;;5097387;28;20227;-85
2021/06/27 03:37:03;;;;;;;75.10;47.30;;;18.80;99.90;;;;;;5062510;28;20201;-85
2021/06/27 03:39:28;;;;;;;73.40;47.22;;;18.60;99.90;;;;;;5079267;28;20170;-85
2021/06/27 03:41:54;;;;;;;73.45;47.25;;;18.50;99.90;;;;;;5097294;28;20645;-84
2021/06/27 03:44:21;;;;;;;73.00;46.10;;;18.40;99.90;;;;;;5062508;28;20255;-86
2021/06/27 03:46:47;;;;;;;70.25;46.67;;;18.40;99.90;;;;;;5096723;28;20166;-84
2021/06/27 03:49:13;;;;;;;64.30;46.15;;;18.40;99.90;;;;;;5077611;28;20527;-85
2021/06/27 03:51:39;;;;;;;68.90;46.08;;;18.10;99.90;;;;;;5056115;28;20236;-85
2021/06/27 03:54:05;;;;;;;64.40;44.67;;;18.00;99.90;;;;;;5076803;28;20174;-84
2021/06/27 03:56:30;;;;;;;75.50;47.38;;;18.00;99.90;;;;;;5076555;28;20181;-85
2021/06/27 03:58:56;;;;;;;66.85;45.40;;;18.00;99.90;;;;;;5078479;28;20591;-84
2021/06/27 04:01:22;;;;;;;61.80;43.65;;;17.90;99.90;;;;;;5078379;28;20178;-86
2021/06/27 04:03:48;;;;;;;63.42;43.58;;;17.90;99.90;;;;;;5096628;28;20573;-85
2021/06/27 04:06:13;;;;;;;65.80;44.95;;;18.10;99.90;;;;;;5062146;28;20174;-85
2021/06/27 04:08:39;;;;;;;66.85;46.60;;;18.20;99.90;;;;;;5095279;28;20509;-86
2021/06/27 04:11:05;;;;;;;72.40;46.20;;;18.30;99.90;;;;;;5096056;28;20170;-85
2021/06/27 04:13:33;;;;;;;72.97;48.63;;;18.30;99.90;;;;;;5061605;28;20257;-85
2021/06/27 04:16:00;;;;;;;71.07;47.60;;;18.50;99.90;;;;;;5077865;28;20620;-86
2021/06/27 04:18:26;;;;;;;65.22;45.83;;;18.60;99.90;;;;;;5078622;28;20646;-85
2021/06/27 04:20:55;;;;;;;72.65;44.28;;;18.60;99.90;;;;;;5092498;28;20185;-85
2021/06/27 04:23:22;;;;;;;62.70;42.63;;;18.60;99.90;;;;;;5061633;28;20205;-85
2021/06/27 04:25:48;;;;;;;60.28;43.63;;;18.60;99.90;;;;;;5078054;28;20175;-85
2021/06/27 04:28:13;;;;;;;61.13;41.97;;;18.60;99.90;;;;;;5061611;28;20177;-85
2021/06/27 04:30:40;;;;;;;57.55;42.20;;;18.40;99.90;;;;;;5073993;28;20181;-85
2021/06/27 04:33:07;;;;;;;64.60;42.05;;;18.30;99.90;;;;;;5069327;28;20182;-85
2021/06/27 04:35:35;;;;;;;54.50;40.78;;;18.30;99.90;;;;;;5059007;28;20265;-85
2021/06/27 04:38:05;;;;;;;58.58;41.53;;;18.60;99.90;;;;;;5076996;28;20553;-86
2021/06/27 04:40:32;;;;;;;53.25;38.28;;;18.90;99.90;;;;;;5052668;28;20167;-85
2021/06/27 04:42:58;;;;;;;45.50;35.08;;;19.80;99.90;;;;;;5076500;28;20726;-87
2021/06/27 04:45:24;;;;;;;45.50;33.60;;;20.60;99.90;;;;;;5066164;28;20292;-86
2021/06/27 04:47:49;;;;;;;42.95;31.10;;;20.80;99.90;;;;;;5078282;28;20531;-86
2021/06/27 04:50:15;;;;;;;37.13;31.13;;;21.40;99.90;;;;;;5084357;28;20662;-85
2021/06/27 04:52:41;;;;;;;34.83;30.85;;;22.30;99.90;;;;;;5056292;28;20181;-86
2021/06/27 04:55:07;;;;;;;33.90;28.17;;;23.10;99.90;;;;;;5095986;28;20177;-86
2021/06/27 04:57:34;;;;;;;35.03;28.70;;;23.80;99.90;;;;;;5077477;28;20299;-86
2021/06/27 05:00:01;;;;;;;38.10;27.48;;;23.90;99.90;;;;;;5077225;28;20178;-87
2021/06/27 05:02:27;;;;;;;41.05;28.27;;;23.50;99.90;;;;;;5077425;28;20170;-85
2021/06/27 05:04:52;;;;;;;36.20;28.95;;;22.80;99.90;;;;;;5077674;28;20221;-85
2021/06/27 05:07:18;;;;;;;36.13;29.70;;;21.70;99.90;;;;;;5077849;28;20199;-85
2021/06/27 05:09:44;;;;;;;36.85;30.42;;;21.10;99.90;;;;;;5076776;28;20212;-84
2021/06/27 05:12:09;;;;;;;37.65;29.88;;;21.00;99.90;;;;;;5095024;28;20180;-84
2021/06/27 05:14:35;;;;;;;34.88;30.92;;;20.80;99.90;;;;;;5095440;28;20270;-87
2021/06/27 05:17:01;;;;;;;42.05;31.17;;;20.70;99.90;;;;;;5077388;28;20584;-86
2021/06/27 05:19:27;;;;;;;42.92;31.02;;;20.50;99.90;;;;;;5094521;28;20166;-85
2021/06/27 05:21:53;;;;;;;39.15;31.92;;;20.60;99.90;;;;;;5095442;28;20550;-86
2021/06/27 05:24:19;;;;;;;38.88;31.38;;;20.90;99.90;;;;;;5077366;28;20198;-86
2021/06/27 05:26:46;;;;;;;40.20;31.42;;;21.20;99.90;;;;;;5077033;28;20186;-86
2021/06/27 05:29:11;;;;;;;40.95;31.50;;;21.20;99.90;;;;;;5077674;28;20193;-88
2021/06/27 05:31:37;;;;;;;42.03;31.45;;;20.90;99.90;;;;;;5076176;28;20580;-86
2021/06/27 05:34:04;;;;;;;34.63;29.83;;;20.80;99.90;;;;;;5056666;28;20184;-86
2021/06/27 05:36:36;;;;;;;39.78;31.52;;;20.80;99.90;;;;;;5074909;28;20202;-84
2021/06/27 05:39:03;;;;;;;37.70;31.80;;;20.70;99.90;;;;;;5073888;28;20174;-87
2021/06/27 05:41:29;;;;;;;39.88;32.45;;;20.50;99.90;;;;;;5076310;28;20170;-86
2021/06/27 05:43:56;;;;;;;38.35;30.25;;;20.60;99.90;;;;;;5075889;28;20205;-85
2021/06/27 05:46:21;;;;;;;40.00;31.88;;;20.80;99.90;;;;;;5095300;28;20165;-85
2021/06/27 05:48:47;;;;;;;39.05;30.70;;;20.70;99.90;;;;;;5094923;28;20177;-85
2021/06/27 05:51:13;;;;;;;39.30;30.00;;;20.50;99.90;;;;;;5064335;28;20650;-86
2021/06/27 05:53:39;;;;;;;43.38;30.63;;;20.40;99.90;;;;;;5058259;28;20230;-86
2021/06/27 05:56:11;;;;;;;38.47;29.00;;;20.30;99.90;;;;;;5092857;28;20220;-87
2021/06/27 05:58:38;;;;;;;40.00;29.67;;;20.50;99.90;;;;;;5077478;28;20173;-88
2021/06/27 06:01:05;;;;;;;37.70;27.60;;;20.40;99.90;;;;;;5076513;28;20166;-86
2021/06/27 06:03:32;;;;;;;32.70;26.67;;;20.60;99.90;;;;;;5095313;28;20215;-85
2021/06/27 06:05:57;;;;;;;31.60;26.70;;;20.60;99.90;;;;;;5095329;28;20304;-87
2021/06/27 06:08:23;;;;;;;35.08;26.58;;;20.60;99.90;;;;;;5078324;28;20197;-89
2021/06/27 06:10:49;;;;;;;31.52;24.70;;;20.70;99.90;;;;;;5054143;28;20193;-88
2021/06/27 06:13:14;;;;;;;28.70;24.88;;;20.70;99.90;;;;;;5083483;28;20170;-89
2021/06/27 06:15:40;;;;;;;38.03;27.30;;;20.90;99.90;;;;;;5096080;28;20170;-90
2021/06/27 06:18:05;;;;;;;35.78;26.05;;;21.20;99.90;;;;;;5079097;28;20615;-89
2021/06/27 06:20:31;;;;;;;33.75;24.42;;;21.60;99.90;;;;;;5057900;28;20173;-89
2021/06/27 06:22:57;;;;;;;24.92;21.83;;;21.50;99.90;;;;;;5075242;28;20186;-88
2021/06/27 06:25:22;;;;;;;28.55;24.05;;;21.70;99.90;;;;;;5060261;28;20190;-87
2021/06/27 06:27:49;;;;;;;26.70;23.38;;;21.90;99.90;;;;;;5070893;28;20196;-87
2021/06/27 06:30:16;;;;;;;23.20;20.58;;;22.20;99.90;;;;;;5097084;28;20264;-87
2021/06/27 06:32:41;;;;;;;24.73;21.05;;;22.50;99.90;;;;;;5098964;28;20650;-87
2021/06/27 06:35:08;;;;;;;28.23;19.52;;;22.50;99.90;;;;;;5099517;28;20243;-88
2021/06/27 06:37:33;;;;;;;21.70;18.77;;;22.70;99.90;;;;;;5097063;28;20249;-88
2021/06/27 06:39:59;;;;;;;28.10;20.77;;;22.90;99.90;;;;;;5079511;28;20689;-87
2021/06/27 06:42:24;;;;;;;26.33;19.63;;;23.10;99.90;;;;;;5078795;28;20541;-88
2021/06/27 06:44:50;;;;;;;22.35;19.25;;;23.30;99.90;;;;;;5060392;28;20198;-89
2021/06/27 06:47:16;;;;;;;20.00;17.85;;;23.40;99.90;;;;;;5051191;28;20220;-87
2021/06/27 06:49:42;;;;;;;19.15;17.10;;;23.40;99.90;;;;;;5096140;28;20203;-86
2021/06/27 06:52:08;;;;;;;18.73;16.83;;;23.10;99.90;;;;;;5084716;28;20182;-85
2021/06/27 06:54:33;;;;;;;22.65;17.15;;;23.20;99.90;;;;;;5061301;28;20174;-84
2021/06/27 06:56:59;;;;;;;16.90;15.40;;;23.30;99.90;;;;;;5078187;28;20243;-85
2021/06/27 06:59:25;;;;;;;18.42;16.50;;;23.30;99.90;;;;;;5095624;28;20170;-84
2021/06/27 07:01:50;;;;;;;17.17;15.57;;;23.40;99.90;;;;;;5097798;28;20181;-85
2021/06/27 07:04:17;;;;;;;19.75;15.27;;;23.10;99.90;;;;;;5079403;28;20202;-85
2021/06/27 07:06:44;;;;;;;15.20;13.70;;;22.90;99.90;;;;;;5066637;28;20306;-85
2021/06/27 07:09:10;;;;;;;22.75;14.32;;;22.90;99.90;;;;;;5076163;28;20199;-85
2021/06/27 07:11:36;;;;;;;14.77;13.40;;;22.60;99.90;;;;;;5078459;28;20170;-84
2021/06/27 07:14:02;;;;;;;15.65;14.15;;;22.70;99.90;;;;;;5062046;28;20165;-86
2021/06/27 07:16:28;;;;;;;17.30;13.88;;;22.70;99.90;;;;;;5075493;28;20181;-88
2021/06/27 07:18:54;;;;;;;14.93;13.70;;;22.80;99.90;;;;;;5086127;28;20217;-82
2021/06/27 07:21:19;;;;;;;16.42;13.77;;;22.80;99.90;;;;;;5077058;28;20170;-86
2021/06/27 07:23:45;;;;;;;13.65;12.45;;;22.70;99.90;;;;;;5078190;28;20617;-86
2021/06/27 07:26:11;;;;;;;13.25;12.10;;;22.60;99.90;;;;;;5076743;28;20538;-85
2021/06/27 07:28:37;;;;;;;13.82;12.43;;;22.70;99.90;;;;;;5077532;28;20165;-86
2021/06/27 07:31:03;;;;;;;13.60;12.38;;;22.90;99.90;;;;;;5085551;28;20179;-86
2021/06/27 07:33:28;;;;;;;15.88;11.95;;;22.80;99.90;;;;;;5097551;28;20185;-88
2021/06/27 07:35:54;;;;;;;17.88;11.43;;;22.90;99.90;;;;;;5079988;28;20162;-87
2021/06/27 07:38:20;;;;;;;12.32;11.13;;;23.10;99.90;;;;;;5086269;28;20225;-87
2021/06/27 07:40:46;;;;;;;13.80;12.38;;;23.30;99.90;;;;;;5083063;28;20171;-83
2021/06/27 07:43:12;;;;;;;19.02;10.80;;;23.90;99.90;;;;;;5096224;28;20167;-84
2021/06/27 07:45:37;;;;;;;12.73;11.40;;;24.20;99.90;;;;;;5096017;28;20214;-85
2021/06/27 07:48:04;;;;;;;12.45;11.07;;;24.50;99.90;;;;;;5117153;28;20159;-86
2021/06/27 07:50:29;;;;;;;12.40;11.10;;;24.40;99.90;;;;;;5100204;28;20195;-86
2021/06/27 07:52:55;;;;;;;11.77;10.77;;;24.70;99.90;;;;;;5083791;28;20174;-86
2021/06/27 07:55:21;;;;;;;16.33;13.25;;;24.80;99.90;;;;;;5097282;28;20556;-86
2021/06/27 07:57:46;;;;;;;14.45;13.13;;;24.40;99.90;;;;;;5060060;28;20257;-86
2021/06/27 08:00:13;;;;;;;12.70;11.48;;;24.00;99.90;;;;;;5094214;28;20173;-86
2021/06/27 08:02:39;;;;;;;13.75;12.65;;;24.00;99.90;;;;;;5059193;28;20227;-86
2021/06/27 08:05:06;;;;;;;16.08;12.35;;;23.70;99.90;;;;;;5076056;28;20598;-86
2021/06/27 08:07:31;;;;;;;14.10;12.73;;;23.90;99.90;;;;;;5095925;28;20171;-86
2021/06/27 08:09:57;;;;;;;12.63;11.20;;;24.30;99.90;;;;;;5063381;28;20198;-86
2021/06/27 08:12:23;;;;;;;12.43;11.13;;;24.50;99.90;;;;;;5059966;28;20634;-87
2021/06/27 08:14:48;;;;;;;12.35;11.07;;;24.70;99.90;;;;;;5090117;28;20181;-87
2021/06/27 08:17:14;;;;;;;15.18;11.43;;;24.70;99.90;;;;;;5097847;28;20174;-87
2021/06/27 08:19:40;;;;;;;13.07;11.75;;;24.20;99.90;;;;;;5082371;28;20170;-86
2021/06/27 08:22:06;;;;;;;17.98;14.35;;;24.10;99.90;;;;;;5079316;28;20190;-85
2021/06/27 08:24:34;;;;;;;13.10;12.00;;;24.50;99.90;;;;;;5100837;28;20200;-87
2021/06/27 08:27:00;;;;;;;15.18;13.68;;;24.10;99.90;;;;;;5067489;28;20207;-86
2021/06/27 08:29:26;;;;;;;16.65;13.80;;;24.20;99.90;;;;;;5100198;28;20162;-85
2021/06/27 08:31:51;;;;;;;19.40;15.43;;;24.40;99.90;;;;;;5100709;28;20178;-86
2021/06/27 08:34:17;;;;;;;26.67;15.45;;;24.80;99.90;;;;;;5082801;28;20223;-87
2021/06/27 08:36:43;;;;;;;16.23;14.55;;;24.50;99.90;;;;;;5085155;28;20177;-87
2021/06/27 08:39:09;;;;;;;15.82;14.30;;;24.50;99.90;;;;;;5082063;28;20184;-85
2021/06/27 08:41:34;;;;;;;21.55;16.38;;;24.30;99.90;;;;;;5082087;28;20181;-86
2021/06/27 08:44:01;;;;;;;17.25;14.90;;;24.50;99.90;;;;;;5081765;28;20654;-86
2021/06/27 08:46:27;;;;;;;22.75;16.00;;;24.30;99.90;;;;;;5081943;28;20174;-86
2021/06/27 08:48:53;;;;;;;18.38;16.42;;;24.00;99.90;;;;;;5099941;28;20177;-87
2021/06/27 08:51:19;;;;;;;17.95;16.05;;;24.40;99.90;;;;;;5065242;28;20623;-87
2021/06/27 08:53:45;;;;;;;20.80;15.82;;;24.50;99.90;;;;;;5065603;28;20216;-87
2021/06/27 08:56:12;;;;;;;17.00;15.32;;;24.80;99.90;;;;;;5097874;28;20166;-84
2021/06/27 08:58:41;;;;;;;19.75;14.68;;;25.00;99.90;;;;;;5078368;28;20178;-85
2021/06/27 09:01:12;;;;;;;16.73;15.05;;;25.00;99.90;;;;;;5077506;28;20659;-86
2021/06/27 09:03:38;;;;;;;18.13;16.30;;;24.80;99.90;;;;;;5095644;28;20182;-86
2021/06/27 09:06:03;;;;;;;17.30;15.70;;;24.50;99.90;;;;;;5060792;28;20208;-86
2021/06/27 09:08:29;;;;;;;18.02;16.23;;;24.40;99.90;;;;;;5096045;28;20181;-87
2021/06/27 09:10:55;;;;;;;18.15;15.73;;;24.60;99.90;;;;;;5077287;28;20268;-85
2021/06/27 09:13:41;;;;;;;17.40;14.35;;;25.00;99.90;;;;;;5077628;28;20166;-87
2021/06/27 09:16:34;;;;;;;15.95;14.43;;;25.50;99.90;;;;;;5061067;28;20173;-86
2021/06/27 09:19:02;;;;;;;16.33;14.77;;;25.50;99.90;;;;;;5072467;28;20174;-86
2021/06/27 09:21:28;;;;;;;19.23;15.73;;;25.30;99.90;;;;;;5077043;28;20162;-86
2021/06/27 09:23:54;;;;;;;17.60;14.23;;;25.50;99.90;;;;;;5076869;28;20190;-86
2021/06/27 09:26:32;;;;;;;15.50;14.05;;;26.40;99.90;;;;;;5077073;28;20318;-84
2021/06/27 09:28:59;;;;;;;15.45;14.05;;;26.60;99.90;;;;;;5095151;28;20170;-86
2021/06/27 09:31:42;;;;;;;11.98;11.07;;;26.20;99.90;;;;;;5077511;28;20170;-86
2021/06/27 09:34:12;;;;;;;13.38;11.68;;;27.70;99.90;;;;;;5094817;28;20189;-86
2021/06/27 09:36:45;;;;;;;13.18;12.15;;;29.30;99.90;;;;;;5095182;28;20151;-83
2021/06/27 09:39:15;;;;;;;14.50;11.93;;;30.60;99.90;;;;;;5067361;28;20295;-82
2021/06/27 09:41:51;;;;;;;13.65;12.25;;;29.80;99.90;;;;;;5095025;28;20249;-83
2021/06/27 09:44:18;;;;;;;12.88;11.77;;;29.40;99.90;;;;;;5076697;28;20672;-83
2021/06/27 09:46:49;;;;;;;20.13;12.38;;;28.50;99.90;;;;;;5076256;28;20527;-82
2021/06/27 09:49:24;;;;;;;10.15;9.35;;;27.50;99.90;;;;;;5093647;28;20171;-83
2021/06/27 09:52:07;;;;;;;12.05;10.75;;;27.20;99.90;;;;;;5076602;28;20573;-83
2021/06/27 09:54:34;;;;;;;10.85;10.15;;;26.50;99.90;;;;;;5076277;28;20199;-82
2021/06/27 09:57:00;;;;;;;12.45;11.15;;;25.90;99.90;;;;;;5064118;28;20232;-83
2021/06/27 09:59:34;;;;;;;15.55;12.18;;;25.70;99.90;;;;;;5089016;28;20182;-83
2021/06/27 10:02:00;;;;;;;12.07;10.88;;;24.80;99.90;;;;;;5059612;28;20206;-82
2021/06/27 10:04:32;;;;;;;11.95;11.00;;;24.50;99.90;;;;;;5094186;28;20236;-83
2021/06/27 10:07:00;;;;;;;11.25;10.18;;;24.50;99.90;;;;;;5065368;28;20181;-82
2021/06/27 10:09:31;;;;;;;13.05;11.95;;;24.60;99.90;;;;;;5074198;28;20248;-82
2021/06/27 10:12:18;;;;;;;13.30;11.23;;;24.90;99.90;;;;;;5070264;28;20249;-82
2021/06/27 10:14:51;;;;;;;12.35;11.20;;;24.60;99.90;;;;;;5076080;28;20174;-82
2021/06/27 10:17:18;;;;;;;13.20;11.90;;;24.30;99.90;;;;;;5074913;28;20180;-82
2021/06/27 10:19:45;;;;;;;11.80;10.85;;;24.40;99.90;;;;;;5076202;28;20253;-82
2021/06/27 10:22:11;;;;;;;12.07;11.02;;;24.50;99.90;;;;;;5075221;28;20174;-82
2021/06/27 10:24:36;;;;;;;11.15;10.35;;;24.80;99.90;;;;;;5055791;28;20202;-83
2021/06/27 10:27:04;;;;;;;11.88;10.82;;;25.30;99.90;;;;;;5070028;28;20185;-82
2021/06/27 10:29:30;;;;;;;11.80;10.80;;;25.50;99.90;;;;;;5092312;28;20219;-83
2021/06/27 10:31:57;;;;;;;13.77;11.40;;;25.60;99.90;;;;;;5094355;28;20168;-82
2021/06/27 10:34:24;;;;;;;10.52;9.60;;;26.10;99.90;;;;;;5093598;28;20188;-83
2021/06/27 10:36:55;;;;;;;10.48;9.55;;;26.70;99.90;;;;;;5092997;28;20249;-82
2021/06/27 10:39:21;;;;;;;10.88;9.93;;;27.90;99.90;;;;;;5087847;28;20236;-82
2021/06/27 10:42:02;;;;;;;16.38;9.50;;;28.80;99.90;;;;;;5075746;28;20253;-83
2021/06/27 10:44:49;;;;;;;9.30;8.50;;;29.50;99.90;;;;;;5093624;28;20213;-83
2021/06/27 10:47:32;;;;;;;11.98;10.15;;;30.00;99.90;;;;;;5052887;28;20191;-81
2021/06/27 10:49:59;;;;;;;11.73;9.15;;;29.90;99.90;;;;;;5069807;28;20174;-81
2021/06/27 10:52:25;;;;;;;10.00;9.20;;;30.20;99.90;;;;;;5093366;28;20178;-82
2021/06/27 10:55:18;;;;;;;9.27;8.50;;;30.40;99.90;;;;;;5075738;28;20636;-82
2021/06/27 10:58:07;;;;;;;9.40;8.63;;;32.20;99.90;;;;;;5042352;28;20177;-81
2021/06/27 11:01:05;;;;;;;9.20;8.48;;;34.10;99.90;;;;;;5079225;28;20246;-81
2021/06/27 11:03:45;;;;;;;7.90;7.30;;;33.50;99.90;;;;;;5035278;28;20201;-83
2021/06/27 11:06:17;;;;;;;7.78;7.15;;;34.30;99.90;;;;;;5074466;28;20193;-84
2021/06/27 11:08:48;;;;;;;7.22;6.72;;;33.70;99.90;;;;;;5065959;28;20178;-83
2021/06/27 11:11:17;;;;;;;15.73;7.20;;;32.70;99.90;;;;;;5084161;28;20633;-83
2021/06/27 11:13:44;;;;;;;7.68;6.85;;;32.60;99.90;;;;;;5075227;28;20591;-83
2021/06/27 11:16:14;;;;;;;8.15;5.50;;;33.30;99.90;;;;;;5075048;28;20170;-82
2021/06/27 11:18:42;;;;;;;8.60;7.18;;;34.20;99.90;;;;;;5084098;28;20169;-82
2021/06/27 11:21:35;;;;;;;11.52;7.65;;;34.60;99.90;;;;;;5074325;28;20261;-80
2021/06/27 11:24:03;;;;;;;8.40;7.63;;;33.00;99.90;;;;;;5046915;28;20202;-82
2021/06/27 11:26:41;;;;;;;7.72;7.13;;;31.80;99.90;;;;;;5072922;28;20568;-82
2021/06/27 11:29:22;;;;;;;7.25;6.65;;;33.20;99.90;;;;;;5072936;28;20165;-83
2021/06/27 11:31:55;;;;;;;7.50;6.88;;;34.40;99.90;;;;;;5074433;28;20174;-82
2021/06/27 11:34:28;;;;;;;11.57;6.68;;;36.10;99.90;;;;;;5075074;28;20169;-82
2021/06/27 11:37:21;;;;;;;8.20;6.85;;;36.60;99.90;;;;;;5092265;28;20588;-82
2021/06/27 11:39:47;;;;;;;6.28;5.68;;;35.10;99.90;;;;;;5092603;28;20166;-81
2021/06/27 11:42:26;;;;;;;7.47;6.90;;;33.80;99.90;;;;;;5077679;28;20683;-84
2021/06/27 11:45:13;;;;;;;6.68;6.07;;;33.80;99.90;;;;;;5078786;28;20224;-81
2021/06/27 11:47:55;;;;;;;7.32;6.75;;;33.20;99.90;;;;;;5064533;28;20202;-82
2021/06/27 11:50:20;;;;;;;6.20;5.80;;;32.10;99.90;;;;;;5078876;28;20165;-82
2021/06/27 11:52:55;;;;;;;8.32;7.25;;;31.30;99.90;;;;;;5096559;28;20219;-80
2021/06/27 11:55:28;;;;;;;7.72;6.70;;;30.70;99.90;;;;;;5078892;28;20569;-81
2021/06/27 11:57:54;;;;;;;7.93;7.32;;;30.40;99.90;;;;;;5087599;28;20639;-81
2021/06/27 12:00:20;;;;;;;7.35;6.75;;;30.10;99.90;;;;;;5076392;28;20619;-81
2021/06/27 12:02:46;;;;;;;7.18;6.68;;;29.80;99.90;;;;;;5089477;28;20174;-82
2021/06/27 12:05:15;;;;;;;7.25;6.70;;;29.70;99.90;;;;;;5096661;28;20202;-81
2021/06/27 12:07:46;;;;;;;7.85;7.28;;;29.60;99.90;;;;;;5090703;28;20166;-81
2021/06/27 12:10:18;;;;;;;12.80;8.02;;;29.30;99.90;;;;;;5058439;28;20174;-81
2021/06/27 12:12:53;;;;;;;8.82;8.10;;;29.00;99.90;;;;;;5076168;28;20177;-81
2021/06/27 12:15:19;;;;;;;11.07;7.47;;;28.90;99.90;;;;;;5073982;28;20226;-82
2021/06/27 12:17:56;;;;;;;8.63;7.90;;;28.80;99.90;;;;;;5077328;28;20179;-80
2021/06/27 12:20:23;;;;;;;12.00;8.23;;;28.60;99.90;;;;;;5096475;28;20185;-80
2021/06/27 12:22:51;;;;;;;7.78;7.18;;;28.40;99.90;;;;;;5096264;28;20708;-82
2021/06/27 12:25:28;;;;;;;9.02;8.23;;;28.40;99.90;;;;;;5077624;28;20714;-81
2021/06/27 12:27:56;;;;;;;7.82;7.10;;;28.40;99.90;;;;;;5071481;28;20198;-82
2021/06/27 12:30:44;;;;;;;7.65;7.15;;;28.50;99.90;;;;;;5058387;28;20163;-82
2021/06/27 12:33:16;;;;;;;11.27;7.90;;;28.70;99.90;;;;;;5058005;28;20594;-81
2021/06/27 12:35:44;;;;;;;8.18;7.30;;;29.10;99.90;;;;;;5075872;28;20526;-82